createdAt,value
2023-03-26T00:18:46.629Z,99746.07
2023-03-26T00:23:06.735Z,99749.00
2023-03-26T00:27:36.222Z,99751.81
2023-03-26T00:32:05.627Z,99753.98
2023-03-26T00:58:01.366Z,99735.86
2023-03-26T01:02:30.798Z,99743.94
2023-03-26T01:07:03.177Z,99741.66
2023-03-26T01:11:32.246Z,99743.10
2023-03-26T01:29:32.288Z,99748.81
2023-03-26T01:34:05.832Z,99748.97
2023-03-26T01:38:49.329Z,99751.08
2023-03-26T01:43:19.804Z,99755.27
2023-03-26T02:28:34.290Z,99763.87
2023-03-26T02:32:54.188Z,99772.63
2023-03-26T02:37:24.280Z,99775.62
2023-03-26T02:41:53.718Z,99779.31
2023-03-26T02:46:12.063Z,99780.66
2023-03-26T02:50:26.543Z,99787.64
2023-03-26T02:54:35.704Z,99794.55
2023-03-26T03:03:05.601Z,99793.79
2023-03-26T03:07:34.921Z,99798.75
2023-03-26T03:12:04.733Z,99803.85
2023-03-26T03:33:58.580Z,99819.95
2023-03-26T03:38:09.223Z,99827.23
2023-03-26T03:42:17.864Z,99827.03
2023-03-26T04:03:08.209Z,99843.17
2023-03-26T04:07:22.445Z,99849.32
2023-03-26T04:11:52.911Z,99846.75
2023-03-26T04:29:01.063Z,99859.24
2023-03-26T04:33:14.185Z,99857.05
2023-03-26T04:37:12.461Z,99859.30
2023-03-26T04:41:11.138Z,99856.88
2023-03-26T04:45:49.806Z,99863.49
2023-03-26T04:50:07.513Z,99868.36
2023-03-26T04:54:30.384Z,99868.83
2023-03-26T04:58:48.401Z,99874.15
2023-03-26T05:03:01.351Z,99878.83
2023-03-26T05:06:28.067Z,99883.46
2023-03-26T05:27:03.662Z,99884.39
2023-03-26T05:31:01.597Z,99892.22
2023-03-26T05:35:02.647Z,99891.00
2023-03-26T05:39:20.697Z,99895.67
2023-03-26T05:43:58.559Z,99894.49
2023-03-26T05:48:01.951Z,99895.73
2023-03-26T05:52:21.458Z,99895.61
2023-03-26T05:56:39.311Z,99891.36
2023-03-26T06:01:14.823Z,99894.88
2023-03-26T06:09:59.438Z,99896.17
2023-03-26T06:53:23.784Z,99915.11
2023-03-26T06:58:02.272Z,99919.32
2023-03-26T07:02:13.142Z,99914.98
2023-03-26T07:06:40.532Z,99914.64
2023-03-26T07:10:49.364Z,99913.51
2023-03-26T07:15:22.861Z,99913.23
2023-03-26T07:51:54.633Z,99923.72
2023-03-26T07:56:22.674Z,99927.94
2023-03-26T08:00:44.742Z,99930.51
2023-03-26T08:05:10.838Z,99932.83
2023-03-26T08:09:20.732Z,99930.59
2023-03-26T08:36:14.009Z,99934.65
2023-03-26T08:40:43.186Z,99934.19
2023-03-26T08:44:52.034Z,99933.25
2023-03-26T08:49:22.316Z,99935.55
2023-03-26T08:53:44.013Z,99936.35
2023-03-26T08:58:24.409Z,99939.27
2023-03-26T09:02:48.730Z,99934.70
2023-03-26T09:33:22.694Z,99950.66
2023-03-26T09:37:56.079Z,99952.45
2023-03-26T09:42:47.794Z,99954.06
2023-03-26T09:47:32.360Z,99953.52
2023-03-26T09:52:16.012Z,99948.84
2023-03-26T09:56:52.635Z,99949.79
2023-03-26T10:01:39.169Z,99955.91
2023-03-26T10:18:59.893Z,99952.27
2023-03-26T10:23:24.641Z,99955.88
2023-03-26T10:28:10.712Z,99959.13
2023-03-26T11:35:09.266Z,99982.66
2023-03-26T11:39:27.294Z,99983.77
2023-03-26T11:43:51.333Z,99985.33
2023-03-26T12:14:07.255Z,99971.44
2023-03-26T12:18:16.030Z,99974.73
2023-03-26T12:22:47.949Z,99975.90
2023-03-26T12:27:09.155Z,99978.30
2023-03-26T12:31:45.034Z,99979.13
2023-03-26T12:36:08.606Z,99973.77
2023-03-26T13:19:17.805Z,99970.38
2023-03-26T13:23:26.187Z,99963.19
2023-03-26T13:27:57.137Z,99951.39
2023-03-26T13:32:27.530Z,99946.89
2023-03-26T13:36:27.108Z,99951.27
2023-03-26T13:40:36.353Z,99950.02
2023-03-26T13:45:04.645Z,99950.34
2023-03-26T13:49:28.044Z,99953.24
2023-03-26T13:53:43.011Z,99943.15
2023-03-26T13:58:17.499Z,99935.09
2023-03-26T14:02:37.023Z,99937.20
2023-03-26T14:17:51.431Z,99932.06
2023-03-26T14:21:23.197Z,99930.67
2023-03-26T14:25:25.413Z,99932.89
2023-03-26T14:29:25.094Z,99929.38
2023-03-26T14:33:14.124Z,99923.11
2023-03-26T14:37:43.044Z,99919.11
2023-03-26T14:42:21.006Z,99921.42
2023-03-26T14:46:59.976Z,99925.68
2023-03-26T15:27:39.722Z,99965.20
2023-03-26T15:32:21.258Z,99974.25
2023-03-26T15:36:53.179Z,99976.80
2023-03-26T15:41:23.424Z,99981.74
2023-03-26T15:46:11.529Z,99989.25
2023-03-26T15:50:33.382Z,99995.50
2023-03-26T15:55:04.178Z,99997.83
2023-03-26T16:26:25.699Z,100016.96
2023-03-26T16:30:39.148Z,100021.75
2023-03-26T16:34:48.942Z,100021.40
2023-03-26T16:39:27.313Z,100022.30
2023-03-26T16:44:06.259Z,100029.25
2023-03-26T16:48:30.655Z,100029.55
2023-03-26T17:41:28.755Z,100070.98
2023-03-26T17:46:03.922Z,100072.39
2023-03-26T17:49:53.812Z,100080.80
2023-03-26T18:25:12.946Z,100107.79
2023-03-26T18:29:31.149Z,100108.54
2023-03-26T18:34:03.132Z,100104.93
2023-03-26T18:38:13.047Z,100104.59
2023-03-26T18:59:35.147Z,100110.54
2023-03-26T19:02:50.227Z,100111.05
2023-03-26T19:06:53.018Z,100109.88
2023-03-26T19:11:02.604Z,100105.05
2023-03-26T19:15:28.949Z,100106.36
2023-03-26T19:37:36.689Z,100111.77
2023-03-26T19:42:06.224Z,100115.98
2023-03-26T19:46:53.519Z,100117.75
2023-03-26T19:51:36.312Z,100121.80
2023-03-26T20:00:05.571Z,100120.64
2023-03-26T20:04:32.529Z,100111.27
2023-03-26T20:08:50.284Z,100116.55
2023-03-26T20:13:20.720Z,100119.95
2023-03-26T20:17:51.666Z,100132.02
2023-03-26T20:39:57.640Z,100133.83
2023-03-26T20:44:27.061Z,100131.73
2023-03-26T20:48:56.766Z,100135.91
2023-03-26T21:06:14.811Z,100139.13
2023-03-26T21:10:44.971Z,100143.14
2023-03-26T21:15:23.783Z,100148.79
2023-03-26T21:29:05.074Z,100161.77
2023-03-26T21:33:11.881Z,100168.19
2023-03-26T21:37:34.084Z,100171.01
2023-03-26T21:42:05.808Z,100170.08
2023-03-26T22:13:13.733Z,100190.63
2023-03-26T22:17:32.651Z,100195.70
2023-03-26T22:22:01.594Z,100195.92
2023-03-26T22:26:31.332Z,100197.90
2023-03-26T22:52:33.547Z,100211.08
2023-03-26T22:56:52.173Z,100212.67
2023-03-26T23:01:10.530Z,100218.23
2023-03-26T23:22:14.430Z,100233.52
2023-03-26T23:26:27.262Z,100238.98
2023-03-26T23:30:45.972Z,100233.14
2023-03-26T23:35:18.452Z,100236.27
2023-03-26T23:57:01.659Z,100250.80
